sensor_id;sensor_type;location;lat;lon;timestamp;temperature;humidity
51867;DHT22;52862;52.504;13.480;2023-10-08T00:02:23;12.10;99.90
51867;DHT22;52862;52.504;13.480;2023-10-08T00:09:48;12.20;99.90
51867;DHT22;52862;52.504;13.480;2023-10-08T00:12:17;12.50;99.90
51867;DHT22;52862;52.504;13.480;2023-10-08T00:14:44;12.60;99.90
51867;DHT22;52862;52.504;13.480;2023-10-08T00:17:13;12.20;99.90
51867;DHT22;52862;52.504;13.480;2023-10-08T00:22:09;12.50;99.90
51867;DHT22;52862;52.504;13.480;2023-10-08T00:24:36;11.80;99.90
51867;DHT22;52862;52.504;13.480;2023-10-08T00:27:07;12.20;99.90
51867;DHT22;52862;52.504;13.480;2023-10-08T00:32:06;12.20;99.90
51867;DHT22;52862;52.504;13.480;2023-10-08T00:34:39;12.30;99.90
51867;DHT22;52862;52.504;13.480;2023-10-08T00:37:09;12.00;99.90
51867;DHT22;52862;52.504;13.480;2023-10-08T00:39:37;12.30;99.90
51867;DHT22;52862;52.504;13.480;2023-10-08T00:42:07;12.40;99.90
51867;DHT22;52862;52.504;13.480;2023-10-08T00:47:08;11.70;99.90
51867;DHT22;52862;52.504;13.480;2023-10-08T00:49:37;12.30;99.90
51867;DHT22;52862;52.504;13.480;2023-10-08T00:52:30;12.20;99.90
51867;DHT22;52862;52.504;13.480;2023-10-08T00:55:06;12.20;99.90
51867;DHT22;52862;52.504;13.480;2023-10-08T01:02:48;12.20;99.90
51867;DHT22;52862;52.504;13.480;2023-10-08T01:05:21;11.70;99.90
51867;DHT22;52862;52.504;13.480;2023-10-08T01:07:52;11.70;99.90
51867;DHT22;52862;52.504;13.480;2023-10-08T01:10:22;12.10;99.90
51867;DHT22;52862;52.504;13.480;2023-10-08T01:12:50;12.00;99.90
51867;DHT22;52862;52.504;13.480;2023-10-08T01:15:31;12.30;99.90
51867;DHT22;52862;52.504;13.480;2023-10-08T01:18:02;12.50;99.90
51867;DHT22;52862;52.504;13.480;2023-10-08T01:23:05;12.70;99.90
51867;DHT22;52862;52.504;13.480;2023-10-08T01:25:36;12.10;99.90
51867;DHT22;52862;52.504;13.480;2023-10-08T01:28:05;11.90;99.90
51867;DHT22;52862;52.504;13.480;2023-10-08T01:35:38;12.30;99.90
51867;DHT22;52862;52.504;13.480;2023-10-08T01:38:06;12.20;99.90
51867;DHT22;52862;52.504;13.480;2023-10-08T01:45:30;11.70;99.90
51867;DHT22;52862;52.504;13.480;2023-10-08T01:52:54;11.80;99.90
51867;DHT22;52862;52.504;13.480;2023-10-08T01:55:21;11.80;99.90
51867;DHT22;52862;52.504;13.480;2023-10-08T01:57:50;11.90;99.90
51867;DHT22;52862;52.504;13.480;2023-10-08T02:02:46;12.00;99.90
51867;DHT22;52862;52.504;13.480;2023-10-08T02:12:38;11.90;99.90
51867;DHT22;52862;52.504;13.480;2023-10-08T02:15:05;11.10;99.90
51867;DHT22;52862;52.504;13.480;2023-10-08T02:29:55;11.90;99.90
51867;DHT22;52862;52.504;13.480;2023-10-08T02:32:22;12.00;99.90
51867;DHT22;52862;52.504;13.480;2023-10-08T02:34:49;11.80;99.90
51867;DHT22;52862;52.504;13.480;2023-10-08T02:37:16;12.40;99.90
51867;DHT22;52862;52.504;13.480;2023-10-08T02:39:43;12.10;99.90
51867;DHT22;52862;52.504;13.480;2023-10-08T02:47:09;11.70;99.90
51867;DHT22;52862;52.504;13.480;2023-10-08T02:49:38;11.70;99.90
51867;DHT22;52862;52.504;13.480;2023-10-08T02:57:04;11.90;99.90
51867;DHT22;52862;52.504;13.480;2023-10-08T02:59:36;11.50;99.90
51867;DHT22;52862;52.504;13.480;2023-10-08T03:04:41;11.70;99.90
51867;DHT22;52862;52.504;13.480;2023-10-08T03:12:16;11.90;99.90
51867;DHT22;52862;52.504;13.480;2023-10-08T03:14:43;11.70;99.90
51867;DHT22;52862;52.504;13.480;2023-10-08T03:17:27;12.10;99.90
51867;DHT22;52862;52.504;13.480;2023-10-08T03:19:55;12.10;99.90
51867;DHT22;52862;52.504;13.480;2023-10-08T03:22:27;11.60;99.90
51867;DHT22;52862;52.504;13.480;2023-10-08T03:25:00;12.40;99.90
51867;DHT22;52862;52.504;13.480;2023-10-08T03:30:10;11.90;99.90
51867;DHT22;52862;52.504;13.480;2023-10-08T03:32:40;11.80;99.90
51867;DHT22;52862;52.504;13.480;2023-10-08T03:35:09;12.00;99.90
51867;DHT22;52862;52.504;13.480;2023-10-08T03:37:38;12.30;99.90
51867;DHT22;52862;52.504;13.480;2023-10-08T03:40:09;12.20;99.90
51867;DHT22;52862;52.504;13.480;2023-10-08T03:42:51;11.60;99.90
51867;DHT22;52862;52.504;13.480;2023-10-08T03:48:00;11.70;99.90
51867;DHT22;52862;52.504;13.480;2023-10-08T03:50:33;11.80;99.90
51867;DHT22;52862;52.504;13.480;2023-10-08T04:03:08;11.70;99.90
51867;DHT22;52862;52.504;13.480;2023-10-08T04:05:38;11.80;99.90
51867;DHT22;52862;52.504;13.480;2023-10-08T04:10:51;11.70;99.90
51867;DHT22;52862;52.504;13.480;2023-10-08T04:18:46;11.70;99.90
51867;DHT22;52862;52.504;13.480;2023-10-08T04:21:13;11.70;99.90
51867;DHT22;52862;52.504;13.480;2023-10-08T04:23:40;12.00;99.90
51867;DHT22;52862;52.504;13.480;2023-10-08T04:26:07;11.00;99.90
51867;DHT22;52862;52.504;13.480;2023-10-08T04:28:35;12.00;99.90
51867;DHT22;52862;52.504;13.480;2023-10-08T04:33:43;11.70;99.90
51867;DHT22;52862;52.504;13.480;2023-10-08T04:38:44;11.10;99.90
51867;DHT22;52862;52.504;13.480;2023-10-08T04:41:14;11.60;99.90
51867;DHT22;52862;52.504;13.480;2023-10-08T04:43:45;11.50;99.90
51867;DHT22;52862;52.504;13.480;2023-10-08T04:54:11;11.20;99.90
51867;DHT22;52862;52.504;13.480;2023-10-08T04:56:42;11.70;99.90
51867;DHT22;52862;52.504;13.480;2023-10-08T04:59:10;11.60;99.90
51867;DHT22;52862;52.504;13.480;2023-10-08T05:01:38;11.20;99.90
51867;DHT22;52862;52.504;13.480;2023-10-08T05:04:14;11.40;99.90
51867;DHT22;52862;52.504;13.480;2023-10-08T05:06:55;11.20;99.90
51867;DHT22;52862;52.504;13.480;2023-10-08T05:09:45;11.30;99.90
51867;DHT22;52862;52.504;13.480;2023-10-08T05:12:19;11.20;99.90
51867;DHT22;52862;52.504;13.480;2023-10-08T05:15:04;11.60;99.90
51867;DHT22;52862;52.504;13.480;2023-10-08T05:17:48;11.60;99.90
51867;DHT22;52862;52.504;13.480;2023-10-08T05:23:25;11.00;99.90
51867;DHT22;52862;52.504;13.480;2023-10-08T05:26:11;11.20;99.90
51867;DHT22;52862;52.504;13.480;2023-10-08T05:28:46;11.20;99.90
51867;DHT22;52862;52.504;13.480;2023-10-08T05:36:58;11.30;99.90
51867;DHT22;52862;52.504;13.480;2023-10-08T05:39:59;11.10;99.90
51867;DHT22;52862;52.504;13.480;2023-10-08T05:42:39;11.20;99.90
51867;DHT22;52862;52.504;13.480;2023-10-08T05:45:13;11.20;99.90
51867;DHT22;52862;52.504;13.480;2023-10-08T05:50:28;11.10;99.90
51867;DHT22;52862;52.504;13.480;2023-10-08T05:53:04;11.00;99.90
51867;DHT22;52862;52.504;13.480;2023-10-08T05:55:45;11.40;99.90
51867;DHT22;52862;52.504;13.480;2023-10-08T05:58:14;11.30;99.90
51867;DHT22;52862;52.504;13.480;2023-10-08T06:00:51;11.10;99.90
51867;DHT22;52862;52.504;13.480;2023-10-08T06:06:04;11.40;99.90
51867;DHT22;52862;52.504;13.480;2023-10-08T06:08:49;10.80;99.90
51867;DHT22;52862;52.504;13.480;2023-10-08T06:11:18;11.20;99.90
51867;DHT22;52862;52.504;13.480;2023-10-08T06:14:04;11.30;99.90
51867;DHT22;52862;52.504;13.480;2023-10-08T06:16:40;11.40;99.90
51867;DHT22;52862;52.504;13.480;2023-10-08T06:19:11;11.40;99.90
51867;DHT22;52862;52.504;13.480;2023-10-08T06:24:06;11.70;99.90
51867;DHT22;52862;52.504;13.480;2023-10-08T06:26:36;11.70;99.90
51867;DHT22;52862;52.504;13.480;2023-10-08T06:29:10;11.80;99.90
51867;DHT22;52862;52.504;13.480;2023-10-08T06:36:50;12.30;99.90
51867;DHT22;52862;52.504;13.480;2023-10-08T06:39:24;12.10;99.90
51867;DHT22;52862;52.504;13.480;2023-10-08T06:41:53;12.20;99.90
51867;DHT22;52862;52.504;13.480;2023-10-08T06:44:21;12.20;99.90
51867;DHT22;52862;52.504;13.480;2023-10-08T06:46:50;12.10;99.90
51867;DHT22;52862;52.504;13.480;2023-10-08T06:49:21;12.40;99.90
51867;DHT22;52862;52.504;13.480;2023-10-08T06:51:51;12.70;99.90
51867;DHT22;52862;52.504;13.480;2023-10-08T06:54:18;12.60;99.90
51867;DHT22;52862;52.504;13.480;2023-10-08T06:56:46;12.30;99.90
51867;DHT22;52862;52.504;13.480;2023-10-08T06:59:15;12.30;99.90
51867;DHT22;52862;52.504;13.480;2023-10-08T07:01:43;12.70;99.90
51867;DHT22;52862;52.504;13.480;2023-10-08T07:04:12;12.30;99.90
51867;DHT22;52862;52.504;13.480;2023-10-08T07:09:07;12.80;99.90
51867;DHT22;52862;52.504;13.480;2023-10-08T07:11:49;12.60;99.90
51867;DHT22;52862;52.504;13.480;2023-10-08T07:16:44;12.60;99.90
51867;DHT22;52862;52.504;13.480;2023-10-08T07:19:14;12.80;99.90
51867;DHT22;52862;52.504;13.480;2023-10-08T07:21:46;12.60;99.90
51867;DHT22;52862;52.504;13.480;2023-10-08T07:24:13;12.80;99.90
51867;DHT22;52862;52.504;13.480;2023-10-08T07:26:43;13.00;99.90
51867;DHT22;52862;52.504;13.480;2023-10-08T07:29:13;12.70;99.90
51867;DHT22;52862;52.504;13.480;2023-10-08T07:31:44;13.30;99.90
51867;DHT22;52862;52.504;13.480;2023-10-08T07:34:15;13.40;99.90
51867;DHT22;52862;52.504;13.480;2023-10-08T07:36:42;13.50;99.90
51867;DHT22;52862;52.504;13.480;2023-10-08T07:39:09;12.90;99.90
51867;DHT22;52862;52.504;13.480;2023-10-08T07:44:16;13.20;99.90
51867;DHT22;52862;52.504;13.480;2023-10-08T07:46:48;13.10;99.90
51867;DHT22;52862;52.504;13.480;2023-10-08T07:51:43;13.40;99.90
51867;DHT22;52862;52.504;13.480;2023-10-08T07:54:18;13.50;99.90
51867;DHT22;52862;52.504;13.480;2023-10-08T07:56:46;13.60;99.90
51867;DHT22;52862;52.504;13.480;2023-10-08T07:59:14;13.80;99.90
51867;DHT22;52862;52.504;13.480;2023-10-08T08:01:42;14.20;99.90
51867;DHT22;52862;52.504;13.480;2023-10-08T08:04:11;13.70;99.90
51867;DHT22;52862;52.504;13.480;2023-10-08T08:06:41;13.80;99.90
51867;DHT22;52862;52.504;13.480;2023-10-08T08:09:08;13.70;99.90
51867;DHT22;52862;52.504;13.480;2023-10-08T08:14:13;13.70;99.90
51867;DHT22;52862;52.504;13.480;2023-10-08T08:16:43;13.70;99.90
51867;DHT22;52862;52.504;13.480;2023-10-08T08:19:15;13.40;99.90
51867;DHT22;52862;52.504;13.480;2023-10-08T08:21:43;14.00;99.90
51867;DHT22;52862;52.504;13.480;2023-10-08T08:24:12;14.20;99.90
51867;DHT22;52862;52.504;13.480;2023-10-08T08:26:39;14.20;99.90
51867;DHT22;52862;52.504;13.480;2023-10-08T08:29:10;14.10;99.90
51867;DHT22;52862;52.504;13.480;2023-10-08T08:31:41;14.20;99.90
51867;DHT22;52862;52.504;13.480;2023-10-08T08:34:12;14.20;99.90
51867;DHT22;52862;52.504;13.480;2023-10-08T08:36:46;14.50;99.90
51867;DHT22;52862;52.504;13.480;2023-10-08T08:39:15;14.40;99.90
51867;DHT22;52862;52.504;13.480;2023-10-08T08:41:59;14.50;99.90
51867;DHT22;52862;52.504;13.480;2023-10-08T08:44:28;14.40;99.90
51867;DHT22;52862;52.504;13.480;2023-10-08T08:46:58;14.50;99.90
51867;DHT22;52862;52.504;13.480;2023-10-08T08:49:27;14.30;99.90
51867;DHT22;52862;52.504;13.480;2023-10-08T08:51:56;14.60;99.90
51867;DHT22;52862;52.504;13.480;2023-10-08T08:54:27;14.70;99.90
51867;DHT22;52862;52.504;13.480;2023-10-08T08:56:57;14.90;99.90
51867;DHT22;52862;52.504;13.480;2023-10-08T08:59:26;15.00;99.90
51867;DHT22;52862;52.504;13.480;2023-10-08T09:01:57;15.10;99.90
51867;DHT22;52862;52.504;13.480;2023-10-08T09:04:29;15.00;99.90
51867;DHT22;52862;52.504;13.480;2023-10-08T09:06:58;14.90;99.90
51867;DHT22;52862;52.504;13.480;2023-10-08T09:09:31;14.70;99.90
51867;DHT22;52862;52.504;13.480;2023-10-08T09:11:58;14.70;99.90
51867;DHT22;52862;52.504;13.480;2023-10-08T09:14:26;14.60;99.90
51867;DHT22;52862;52.504;13.480;2023-10-08T09:16:56;14.70;99.90
51867;DHT22;52862;52.504;13.480;2023-10-08T09:19:24;14.80;99.90
51867;DHT22;52862;52.504;13.480;2023-10-08T09:22:01;15.00;99.90
51867;DHT22;52862;52.504;13.480;2023-10-08T09:24:30;15.20;99.90
51867;DHT22;52862;52.504;13.480;2023-10-08T09:26:57;15.50;99.90
51867;DHT22;52862;52.504;13.480;2023-10-08T09:29:24;15.60;99.90
51867;DHT22;52862;52.504;13.480;2023-10-08T09:31:53;15.60;99.90
51867;DHT22;52862;52.504;13.480;2023-10-08T09:34:22;15.60;99.90
51867;DHT22;52862;52.504;13.480;2023-10-08T09:36:53;15.50;99.90
51867;DHT22;52862;52.504;13.480;2023-10-08T09:39:22;15.80;99.90
51867;DHT22;52862;52.504;13.480;2023-10-08T09:41:50;15.50;99.90
51867;DHT22;52862;52.504;13.480;2023-10-08T09:44:19;15.40;99.90
51867;DHT22;52862;52.504;13.480;2023-10-08T09:49:32;15.40;99.90
51867;DHT22;52862;52.504;13.480;2023-10-08T09:52:03;15.10;99.90
51867;DHT22;52862;52.504;13.480;2023-10-08T09:54:37;15.20;99.90
51867;DHT22;52862;52.504;13.480;2023-10-08T09:57:06;15.20;99.90
51867;DHT22;52862;52.504;13.480;2023-10-08T09:59:34;15.00;99.90
51867;DHT22;52862;52.504;13.480;2023-10-08T10:02:02;15.20;99.90
51867;DHT22;52862;52.504;13.480;2023-10-08T10:04:30;15.30;99.90
51867;DHT22;52862;52.504;13.480;2023-10-08T10:07:08;15.20;99.90
51867;DHT22;52862;52.504;13.480;2023-10-08T10:09:46;14.80;99.90
51867;DHT22;52862;52.504;13.480;2023-10-08T10:12:18;14.70;99.90
51867;DHT22;52862;52.504;13.480;2023-10-08T10:14:53;15.10;99.90
51867;DHT22;52862;52.504;13.480;2023-10-08T10:17:22;14.90;99.90
51867;DHT22;52862;52.504;13.480;2023-10-08T10:20:10;15.00;99.90
51867;DHT22;52862;52.504;13.480;2023-10-08T10:22:39;15.00;99.90
51867;DHT22;52862;52.504;13.480;2023-10-08T10:25:09;15.30;99.90
51867;DHT22;52862;52.504;13.480;2023-10-08T10:28:21;15.10;99.90
51867;DHT22;52862;52.504;13.480;2023-10-08T10:30:48;15.40;99.90
51867;DHT22;52862;52.504;13.480;2023-10-08T10:33:15;15.00;99.90
51867;DHT22;52862;52.504;13.480;2023-10-08T10:35:50;15.30;99.90
51867;DHT22;52862;52.504;13.480;2023-10-08T10:38:19;15.50;99.90
51867;DHT22;52862;52.504;13.480;2023-10-08T10:40:52;15.50;99.90
51867;DHT22;52862;52.504;13.480;2023-10-08T10:43:24;15.70;99.90
51867;DHT22;52862;52.504;13.480;2023-10-08T10:45:59;15.70;99.90
51867;DHT22;52862;52.504;13.480;2023-10-08T10:48:31;15.30;99.90
51867;DHT22;52862;52.504;13.480;2023-10-08T10:51:00;15.30;99.90
51867;DHT22;52862;52.504;13.480;2023-10-08T10:53:35;15.40;99.90
51867;DHT22;52862;52.504;13.480;2023-10-08T10:56:14;15.30;99.90
51867;DHT22;52862;52.504;13.480;2023-10-08T10:58:46;15.50;99.90
51867;DHT22;52862;52.504;13.480;2023-10-08T11:01:23;15.40;99.90
51867;DHT22;52862;52.504;13.480;2023-10-08T11:03:56;15.30;99.90
51867;DHT22;52862;52.504;13.480;2023-10-08T11:06:24;15.20;99.90
51867;DHT22;52862;52.504;13.480;2023-10-08T11:08:52;15.20;99.90
51867;DHT22;52862;52.504;13.480;2023-10-08T11:11:26;15.10;99.90
51867;DHT22;52862;52.504;13.480;2023-10-08T11:13:56;15.20;99.90
51867;DHT22;52862;52.504;13.480;2023-10-08T11:16:26;15.20;99.90
51867;DHT22;52862;52.504;13.480;2023-10-08T11:18:53;15.00;99.60
51867;DHT22;52862;52.504;13.480;2023-10-08T11:21:23;14.80;99.90
51867;DHT22;52862;52.504;13.480;2023-10-08T11:23:52;14.90;99.40
51867;DHT22;52862;52.504;13.480;2023-10-08T11:26:22;15.10;99.90
51867;DHT22;52862;52.504;13.480;2023-10-08T11:28:58;15.20;99.90
51867;DHT22;52862;52.504;13.480;2023-10-08T11:31:27;15.40;99.90
51867;DHT22;52862;52.504;13.480;2023-10-08T11:33:59;15.30;99.90
51867;DHT22;52862;52.504;13.480;2023-10-08T11:36:27;15.50;98.90
51867;DHT22;52862;52.504;13.480;2023-10-08T11:38:55;15.50;99.20
51867;DHT22;52862;52.504;13.480;2023-10-08T11:41:28;15.40;99.50
51867;DHT22;52862;52.504;13.480;2023-10-08T11:43:56;15.50;99.90
51867;DHT22;52862;52.504;13.480;2023-10-08T11:46:24;15.50;99.80
51867;DHT22;52862;52.504;13.480;2023-10-08T11:48:54;15.70;99.90
51867;DHT22;52862;52.504;13.480;2023-10-08T11:51:24;15.40;99.90
51867;DHT22;52862;52.504;13.480;2023-10-08T11:53:55;15.70;98.70
51867;DHT22;52862;52.504;13.480;2023-10-08T11:56:23;15.80;99.90
51867;DHT22;52862;52.504;13.480;2023-10-08T11:58:50;15.80;99.90
51867;DHT22;52862;52.504;13.480;2023-10-08T12:01:18;15.90;99.20
51867;DHT22;52862;52.504;13.480;2023-10-08T12:03:46;16.20;99.90
51867;DHT22;52862;52.504;13.480;2023-10-08T12:08:46;16.50;98.20
51867;DHT22;52862;52.504;13.480;2023-10-08T12:11:14;16.10;99.80
51867;DHT22;52862;52.504;13.480;2023-10-08T12:13:42;16.80;98.40
51867;DHT22;52862;52.504;13.480;2023-10-08T12:16:13;16.80;98.80
51867;DHT22;52862;52.504;13.480;2023-10-08T12:18:45;17.00;98.60
51867;DHT22;52862;52.504;13.480;2023-10-08T12:21:15;17.20;98.40
51867;DHT22;52862;52.504;13.480;2023-10-08T12:23:43;17.30;97.70
51867;DHT22;52862;52.504;13.480;2023-10-08T12:26:13;17.50;97.60
51867;DHT22;52862;52.504;13.480;2023-10-08T12:28:42;17.80;96.80
51867;DHT22;52862;52.504;13.480;2023-10-08T12:31:12;22.90;94.00
51867;DHT22;52862;52.504;13.480;2023-10-08T12:33:42;23.40;85.90
51867;DHT22;52862;52.504;13.480;2023-10-08T12:36:10;27.90;87.90
51867;DHT22;52862;52.504;13.480;2023-10-08T12:38:39;28.20;72.50
51867;DHT22;52862;52.504;13.480;2023-10-08T12:41:07;29.20;62.50
51867;DHT22;52862;52.504;13.480;2023-10-08T12:43:38;30.70;58.20
51867;DHT22;52862;52.504;13.480;2023-10-08T12:46:06;29.00;57.60
51867;DHT22;52862;52.504;13.480;2023-10-08T12:48:38;27.20;60.40
51867;DHT22;52862;52.504;13.480;2023-10-08T12:51:05;28.10;57.10
51867;DHT22;52862;52.504;13.480;2023-10-08T12:53:33;28.70;56.60
51867;DHT22;52862;52.504;13.480;2023-10-08T12:56:03;30.20;55.90
51867;DHT22;52862;52.504;13.480;2023-10-08T12:58:33;31.10;54.30
51867;DHT22;52862;52.504;13.480;2023-10-08T13:01:07;30.40;51.90
51867;DHT22;52862;52.504;13.480;2023-10-08T13:03:36;27.10;56.10
51867;DHT22;52862;52.504;13.480;2023-10-08T13:06:08;21.50;82.70
51867;DHT22;52862;52.504;13.480;2023-10-08T13:08:41;21.00;68.10
51867;DHT22;52862;52.504;13.480;2023-10-08T13:11:07;21.70;70.40
51867;DHT22;52862;52.504;13.480;2023-10-08T13:13:34;24.90;63.40
51867;DHT22;52862;52.504;13.480;2023-10-08T13:16:03;23.80;60.40
51867;DHT22;52862;52.504;13.480;2023-10-08T13:18:33;22.30;65.30
51867;DHT22;52862;52.504;13.480;2023-10-08T13:21:04;22.00;69.10
51867;DHT22;52862;52.504;13.480;2023-10-08T13:23:31;24.10;63.20
51867;DHT22;52862;52.504;13.480;2023-10-08T13:26:01;23.10;65.00
51867;DHT22;52862;52.504;13.480;2023-10-08T13:28:30;21.40;67.00
51867;DHT22;52862;52.504;13.480;2023-10-08T13:31:00;23.90;66.10
51867;DHT22;52862;52.504;13.480;2023-10-08T13:33:27;23.20;66.10
51867;DHT22;52862;52.504;13.480;2023-10-08T13:38:42;19.70;75.20
51867;DHT22;52862;52.504;13.480;2023-10-08T13:41:11;18.00;79.50
51867;DHT22;52862;52.504;13.480;2023-10-08T13:43:41;17.70;82.10
51867;DHT22;52862;52.504;13.480;2023-10-08T13:46:12;20.70;77.70
51867;DHT22;52862;52.504;13.480;2023-10-08T13:48:41;23.90;68.20
51867;DHT22;52862;52.504;13.480;2023-10-08T13:51:08;25.80;63.20
51867;DHT22;52862;52.504;13.480;2023-10-08T13:53:40;27.30;61.20
51867;DHT22;52862;52.504;13.480;2023-10-08T13:56:08;29.50;57.30
51867;DHT22;52862;52.504;13.480;2023-10-08T13:58:38;32.00;54.40
51867;DHT22;52862;52.504;13.480;2023-10-08T14:01:12;31.80;53.40
51867;DHT22;52862;52.504;13.480;2023-10-08T14:03:46;31.40;55.30
51867;DHT22;52862;52.504;13.480;2023-10-08T14:06:14;31.30;52.40
51867;DHT22;52862;52.504;13.480;2023-10-08T14:08:42;30.00;52.80
51867;DHT22;52862;52.504;13.480;2023-10-08T14:11:19;27.60;55.00
51867;DHT22;52862;52.504;13.480;2023-10-08T14:13:50;25.20;58.50
51867;DHT22;52862;52.504;13.480;2023-10-08T14:16:17;23.30;61.60
51867;DHT22;52862;52.504;13.480;2023-10-08T14:18:45;22.00;65.90
51867;DHT22;52862;52.504;13.480;2023-10-08T14:21:20;21.40;63.80
51867;DHT22;52862;52.504;13.480;2023-10-08T14:23:50;21.80;65.90
51867;DHT22;52862;52.504;13.480;2023-10-08T14:26:19;21.80;66.60
51867;DHT22;52862;52.504;13.480;2023-10-08T14:28:49;20.80;72.70
51867;DHT22;52862;52.504;13.480;2023-10-08T14:31:20;19.70;73.70
51867;DHT22;52862;52.504;13.480;2023-10-08T14:33:49;18.90;73.30
51867;DHT22;52862;52.504;13.480;2023-10-08T14:36:23;18.60;75.30
51867;DHT22;52862;52.504;13.480;2023-10-08T14:41:54;17.40;76.50
51867;DHT22;52862;52.504;13.480;2023-10-08T14:44:40;16.80;79.30
51867;DHT22;52862;52.504;13.480;2023-10-08T14:49:35;15.90;83.80
51867;DHT22;52862;52.504;13.480;2023-10-08T14:52:02;15.60;95.10
51867;DHT22;52862;52.504;13.480;2023-10-08T14:54:30;15.60;84.60
51867;DHT22;52862;52.504;13.480;2023-10-08T14:56:58;15.20;86.70
51867;DHT22;52862;52.504;13.480;2023-10-08T15:01:54;15.00;96.70
51867;DHT22;52862;52.504;13.480;2023-10-08T15:04:21;15.00;96.30
51867;DHT22;52862;52.504;13.480;2023-10-08T15:06:48;15.90;97.40
51867;DHT22;52862;52.504;13.480;2023-10-08T15:09:17;15.30;97.80
51867;DHT22;52862;52.504;13.480;2023-10-08T15:11:47;15.40;98.20
51867;DHT22;52862;52.504;13.480;2023-10-08T15:14:14;15.20;90.90
51867;DHT22;52862;52.504;13.480;2023-10-08T15:16:42;15.40;90.90
51867;DHT22;52862;52.504;13.480;2023-10-08T15:19:12;15.30;90.50
51867;DHT22;52862;52.504;13.480;2023-10-08T15:21:41;15.30;91.20
51867;DHT22;52862;52.504;13.480;2023-10-08T15:24:09;15.40;91.50
51867;DHT22;52862;52.504;13.480;2023-10-08T15:26:38;15.50;90.50
51867;DHT22;52862;52.504;13.480;2023-10-08T15:29:05;15.20;92.10
51867;DHT22;52862;52.504;13.480;2023-10-08T15:31:33;15.50;97.60
51867;DHT22;52862;52.504;13.480;2023-10-08T15:33:59;15.50;90.30
51867;DHT22;52862;52.504;13.480;2023-10-08T15:36:31;15.20;91.40
51867;DHT22;52862;52.504;13.480;2023-10-08T15:38:58;15.30;91.50
51867;DHT22;52862;52.504;13.480;2023-10-08T15:41:25;15.10;91.10
51867;DHT22;52862;52.504;13.480;2023-10-08T15:43:53;15.00;91.40
51867;DHT22;52862;52.504;13.480;2023-10-08T15:48:49;14.70;92.50
51867;DHT22;52862;52.504;13.480;2023-10-08T15:53:43;15.20;99.90
51867;DHT22;52862;52.504;13.480;2023-10-08T15:56:10;14.60;93.70
51867;DHT22;52862;52.504;13.480;2023-10-08T15:58:37;14.60;94.10
51867;DHT22;52862;52.504;13.480;2023-10-08T16:01:04;14.60;94.80
51867;DHT22;52862;52.504;13.480;2023-10-08T16:03:30;14.60;96.00
51867;DHT22;52862;52.504;13.480;2023-10-08T16:05:58;14.70;95.10
51867;DHT22;52862;52.504;13.480;2023-10-08T16:08:25;14.60;96.70
51867;DHT22;52862;52.504;13.480;2023-10-08T16:10:52;14.80;94.60
51867;DHT22;52862;52.504;13.480;2023-10-08T16:13:18;14.60;95.20
51867;DHT22;52862;52.504;13.480;2023-10-08T16:15:45;14.50;95.10
51867;DHT22;52862;52.504;13.480;2023-10-08T16:18:12;14.40;94.40
51867;DHT22;52862;52.504;13.480;2023-10-08T16:20:39;14.40;95.10
51867;DHT22;52862;52.504;13.480;2023-10-08T16:23:07;14.40;95.00
51867;DHT22;52862;52.504;13.480;2023-10-08T16:25:36;14.40;95.30
51867;DHT22;52862;52.504;13.480;2023-10-08T16:28:03;14.40;96.40
51867;DHT22;52862;52.504;13.480;2023-10-08T16:30:30;14.30;96.90
51867;DHT22;52862;52.504;13.480;2023-10-08T16:33:00;14.40;96.90
51867;DHT22;52862;52.504;13.480;2023-10-08T16:35:30;14.20;98.10
51867;DHT22;52862;52.504;13.480;2023-10-08T16:37:57;14.30;99.90
51867;DHT22;52862;52.504;13.480;2023-10-08T16:40:25;14.40;99.90
51867;DHT22;52862;52.504;13.480;2023-10-08T16:42:52;14.00;98.40
51867;DHT22;52862;52.504;13.480;2023-10-08T16:45:18;13.50;97.40
51867;DHT22;52862;52.504;13.480;2023-10-08T16:47:46;14.00;98.70
51867;DHT22;52862;52.504;13.480;2023-10-08T16:50:14;14.00;98.10
51867;DHT22;52862;52.504;13.480;2023-10-08T16:52:40;14.00;99.20
51867;DHT22;52862;52.504;13.480;2023-10-08T16:57:36;13.90;99.90
51867;DHT22;52862;52.504;13.480;2023-10-08T17:00:06;13.90;99.90
51867;DHT22;52862;52.504;13.480;2023-10-08T17:02:37;13.80;99.90
51867;DHT22;52862;52.504;13.480;2023-10-08T17:05:04;13.90;99.90
51867;DHT22;52862;52.504;13.480;2023-10-08T17:09:58;13.70;99.90
51867;DHT22;52862;52.504;13.480;2023-10-08T17:12:26;13.80;99.90
51867;DHT22;52862;52.504;13.480;2023-10-08T17:14:53;13.90;99.90
51867;DHT22;52862;52.504;13.480;2023-10-08T17:17:20;13.90;99.90
51867;DHT22;52862;52.504;13.480;2023-10-08T17:19:47;13.80;99.90
51867;DHT22;52862;52.504;13.480;2023-10-08T17:22:15;13.70;99.90
51867;DHT22;52862;52.504;13.480;2023-10-08T17:24:42;13.70;99.90
51867;DHT22;52862;52.504;13.480;2023-10-08T17:27:11;13.90;99.90
51867;DHT22;52862;52.504;13.480;2023-10-08T17:29:41;13.60;99.90
51867;DHT22;52862;52.504;13.480;2023-10-08T17:32:11;13.60;99.90
51867;DHT22;52862;52.504;13.480;2023-10-08T17:34:38;13.70;99.90
51867;DHT22;52862;52.504;13.480;2023-10-08T17:39:32;13.60;99.90
51867;DHT22;52862;52.504;13.480;2023-10-08T17:41:59;13.50;99.90
51867;DHT22;52862;52.504;13.480;2023-10-08T17:44:27;13.50;99.90
51867;DHT22;52862;52.504;13.480;2023-10-08T17:46:54;13.60;99.90
51867;DHT22;52862;52.504;13.480;2023-10-08T17:49:21;13.80;99.90
51867;DHT22;52862;52.504;13.480;2023-10-08T17:51:48;12.80;99.90
51867;DHT22;52862;52.504;13.480;2023-10-08T17:54:15;13.10;99.90
51867;DHT22;52862;52.504;13.480;2023-10-08T17:56:41;13.60;99.90
51867;DHT22;52862;52.504;13.480;2023-10-08T17:59:08;13.30;99.90
51867;DHT22;52862;52.504;13.480;2023-10-08T18:01:39;13.40;99.90
51867;DHT22;52862;52.504;13.480;2023-10-08T18:04:08;13.70;99.90
51867;DHT22;52862;52.504;13.480;2023-10-08T18:06:37;13.30;99.90
51867;DHT22;52862;52.504;13.480;2023-10-08T18:09:04;13.50;99.90
51867;DHT22;52862;52.504;13.480;2023-10-08T18:14:08;13.60;99.90
51867;DHT22;52862;52.504;13.480;2023-10-08T18:16:38;13.30;99.90
51867;DHT22;52862;52.504;13.480;2023-10-08T18:19:07;13.80;99.90
51867;DHT22;52862;52.504;13.480;2023-10-08T18:24:05;13.20;99.90
51867;DHT22;52862;52.504;13.480;2023-10-08T18:26:33;13.30;99.90
51867;DHT22;52862;52.504;13.480;2023-10-08T18:28:59;13.20;99.90
51867;DHT22;52862;52.504;13.480;2023-10-08T18:31:28;13.40;99.90
51867;DHT22;52862;52.504;13.480;2023-10-08T18:36:24;13.20;99.90